Time;durP1;ratioP1;P1;durP2;ratioP2;P2;SDS_P1;SDS_P2;PMS_P1;PMS_P2;Temp;Humidity;BMP_temperature;BMP_pressure;BME280_temperature;BME280_humidity;BME280_pressure;Samples;Min_cycle;Max_cycle;Signal;HPM_P1;HPM_P2
2022/08/19 00:01:49;;;;;;;0.00;0.00;;;17.70;80.40;;;;;;5008924;28;20092;-72
2022/08/19 00:04:19;;;;;;;0.00;0.00;;;17.70;80.30;;;;;;5024963;28;20057;-72
2022/08/19 00:06:46;;;;;;;0.00;0.00;;;17.70;80.40;;;;;;5013180;28;20041;-72
2022/08/19 00:09:17;;;;;;;0.00;0.00;;;17.70;80.30;;;;;;5026929;28;20076;-72
2022/08/19 00:11:43;;;;;;;0.00;0.00;;;17.60;80.30;;;;;;5009831;28;20050;-72
2022/08/19 00:14:11;;;;;;;0.00;0.00;;;17.60;80.40;;;;;;5009764;28;20141;-72
2022/08/19 00:16:41;;;;;;;0.00;0.00;;;17.60;80.40;;;;;;5009316;28;20113;-72
2022/08/19 00:19:07;;;;;;;0.00;0.00;;;17.60;80.30;;;;;;5027272;28;20048;-72
2022/08/19 00:21:38;;;;;;;0.00;0.00;;;17.60;80.30;;;;;;5019369;28;20049;-72
2022/08/19 00:24:03;;;;;;;0.00;0.00;;;17.60;80.40;;;;;;5013852;28;20136;-72
2022/08/19 00:26:29;;;;;;;0.00;0.00;;;17.60;80.30;;;;;;5014848;28;20124;-72
2022/08/19 00:28:55;;;;;;;0.00;0.00;;;17.60;80.40;;;;;;5011999;28;20045;-72
2022/08/19 00:31:21;;;;;;;0.00;0.00;;;17.60;80.60;;;;;;5012562;28;20049;-72
2022/08/19 00:33:49;;;;;;;0.00;0.00;;;17.60;80.80;;;;;;5012186;28;20371;-72
2022/08/19 00:36:14;;;;;;;0.00;0.00;;;17.60;81.10;;;;;;5011828;28;20046;-72
2022/08/19 00:38:43;;;;;;;0.00;0.00;;;17.50;81.30;;;;;;5031162;28;20556;-72
2022/08/19 00:41:20;;;;;;;0.00;0.00;;;17.60;81.10;;;;;;5027844;28;20042;-72
2022/08/19 00:44:16;;;;;;;0.00;0.00;;;17.60;80.90;;;;;;5012472;28;20046;-72
2022/08/19 00:46:45;;;;;;;0.00;0.00;;;17.60;81.00;;;;;;5012481;28;20533;-72
2022/08/19 00:49:22;;;;;;;0.00;0.00;;;17.50;81.20;;;;;;5031697;28;20046;-72
2022/08/19 00:51:53;;;;;;;0.00;0.00;;;17.50;81.30;;;;;;5026086;28;20057;-72
2022/08/19 00:54:19;;;;;;;0.00;0.00;;;17.50;81.30;;;;;;5026427;28;20132;-72
2022/08/19 00:56:45;;;;;;;0.00;0.00;;;17.50;81.60;;;;;;5019891;28;20121;-71
2022/08/19 00:59:11;;;;;;;0.00;0.00;;;17.50;81.30;;;;;;5031357;28;20048;-72
2022/08/19 01:01:42;;;;;;;0.08;0.08;;;17.40;81.20;;;;;;5028113;28;20037;-71
2022/08/19 01:04:08;;;;;;;0.00;0.00;;;17.50;81.40;;;;;;5026953;28;20061;-71
2022/08/19 01:06:36;;;;;;;0.00;0.00;;;17.40;81.20;;;;;;5014111;28;20398;-72
2022/08/19 01:09:01;;;;;;;0.00;0.00;;;17.40;81.50;;;;;;5011612;28;20046;-71
2022/08/19 01:11:29;;;;;;;0.00;0.00;;;17.40;81.40;;;;;;5029620;28;20065;-72
2022/08/19 01:13:55;;;;;;;0.00;0.00;;;17.40;81.50;;;;;;5011321;28;20046;-72
2022/08/19 01:16:23;;;;;;;0.00;0.00;;;17.40;81.60;;;;;;5013179;28;20046;-71
2022/08/19 01:18:50;;;;;;;0.00;0.00;;;17.30;81.50;;;;;;5011237;28;20034;-72
2022/08/19 01:21:34;;;;;;;0.00;0.00;;;17.30;81.60;;;;;;5011070;28;20054;-72
2022/08/19 01:24:00;;;;;;;0.00;0.00;;;17.30;81.50;;;;;;5010969;28;20073;-72
2022/08/19 01:26:26;;;;;;;0.00;0.00;;;17.30;81.40;;;;;;5022588;28;20083;-72
2022/08/19 01:28:55;;;;;;;0.00;0.00;;;17.30;81.30;;;;;;5024830;28;20072;-72
2022/08/19 01:31:24;;;;;;;0.00;0.00;;;17.30;81.40;;;;;;5015404;28;20117;-72
2022/08/19 01:33:52;;;;;;;0.00;0.00;;;17.30;81.40;;;;;;5013118;28;20069;-71
2022/08/19 01:36:28;;;;;;;0.00;0.00;;;17.20;81.40;;;;;;5018348;28;20049;-72
2022/08/19 01:38:54;;;;;;;0.00;0.00;;;17.30;81.60;;;;;;5010387;28;20080;-72
2022/08/19 01:41:20;;;;;;;0.00;0.00;;;17.20;81.70;;;;;;5016785;28;20049;-72
2022/08/19 01:43:46;;;;;;;0.10;0.10;;;17.20;82.00;;;;;;5011245;28;20132;-72
2022/08/19 01:46:12;;;;;;;0.00;0.00;;;17.30;81.80;;;;;;5011004;28;20045;-72
2022/08/19 01:48:39;;;;;;;0.00;0.00;;;17.20;81.70;;;;;;5010901;28;20046;-71
2022/08/19 01:51:06;;;;;;;0.00;0.00;;;17.20;81.70;;;;;;5010838;28;20091;-72
2022/08/19 01:53:32;;;;;;;0.00;0.00;;;17.20;81.70;;;;;;5010424;28;20077;-72
2022/08/19 01:55:58;;;;;;;0.00;0.00;;;17.10;81.70;;;;;;5011498;28;20034;-71
2022/08/19 01:58:31;;;;;;;0.00;0.00;;;17.10;81.80;;;;;;5018018;28;20049;-72
2022/08/19 02:00:57;;;;;;;0.00;0.00;;;17.10;81.90;;;;;;5030581;28;20041;-71
2022/08/19 02:03:23;;;;;;;0.00;0.00;;;17.10;82.00;;;;;;5015796;28;20091;-72
2022/08/19 02:05:59;;;;;;;0.00;0.00;;;17.10;82.30;;;;;;5010642;28;20049;-71
2022/08/19 02:08:26;;;;;;;0.00;0.00;;;17.10;82.40;;;;;;5011115;28;20057;-72
2022/08/19 02:10:51;;;;;;;0.00;0.00;;;17.10;82.60;;;;;;5010088;28;20046;-72
2022/08/19 02:13:17;;;;;;;0.00;0.00;;;17.10;82.60;;;;;;5010276;28;20103;-72
2022/08/19 02:15:43;;;;;;;0.00;0.00;;;17.10;82.50;;;;;;5015751;28;20069;-72
2022/08/19 02:18:08;;;;;;;0.00;0.00;;;17.10;82.30;;;;;;4994570;28;20550;-72
2022/08/19 02:20:35;;;;;;;0.00;0.00;;;17.10;82.40;;;;;;5010301;28;20453;-72
2022/08/19 02:23:01;;;;;;;0.00;0.00;;;17.10;82.40;;;;;;5009953;28;20046;-71
2022/08/19 02:25:27;;;;;;;0.00;0.00;;;17.10;82.60;;;;;;5013838;28;20111;-71
2022/08/19 02:27:53;;;;;;;0.00;0.00;;;17.10;82.90;;;;;;5015128;28;20182;-72
2022/08/19 02:30:19;;;;;;;0.00;0.00;;;17.00;82.90;;;;;;5010129;28;20042;-71
2022/08/19 02:32:45;;;;;;;0.00;0.00;;;17.10;82.70;;;;;;5011456;28;20123;-72
2022/08/19 02:35:13;;;;;;;0.00;0.00;;;17.10;82.80;;;;;;5009390;28;20081;-72
2022/08/19 02:40:23;;;;;;;0.00;0.00;;;17.10;82.60;;;;;;5010041;28;20130;-72
2022/08/19 02:42:49;;;;;;;0.00;0.00;;;17.00;82.60;;;;;;5019987;28;20868;-72
2022/08/19 02:45:15;;;;;;;0.00;0.00;;;16.90;82.50;;;;;;5010112;28;20041;-72
2022/08/19 02:47:40;;;;;;;0.00;0.00;;;16.90;82.50;;;;;;5013242;28;20076;-72
2022/08/19 02:50:06;;;;;;;0.00;0.00;;;16.80;82.60;;;;;;5011411;28;20411;-72
2022/08/19 02:52:33;;;;;;;0.00;0.00;;;16.80;82.70;;;;;;5009618;28;20054;-72
2022/08/19 02:55:00;;;;;;;0.00;0.00;;;16.80;82.90;;;;;;5009613;28;20045;-72
2022/08/19 02:57:26;;;;;;;0.00;0.00;;;16.80;83.20;;;;;;5017404;28;20074;-72
2022/08/19 02:59:52;;;;;;;0.00;0.00;;;16.80;83.50;;;;;;5009331;28;20041;-71
2022/08/19 03:02:18;;;;;;;0.00;0.00;;;16.80;83.60;;;;;;5020756;28;20041;-72
2022/08/19 03:04:44;;;;;;;0.00;0.00;;;16.70;83.50;;;;;;5009739;28;20072;-71
2022/08/19 03:07:14;;;;;;;0.00;0.00;;;16.80;83.40;;;;;;5009771;28;20121;-71
2022/08/19 03:09:39;;;;;;;0.00;0.00;;;16.70;83.30;;;;;;5016908;28;20050;-71
2022/08/19 03:12:05;;;;;;;0.00;0.00;;;16.70;83.10;;;;;;5009508;28;20052;-72
2022/08/19 03:14:32;;;;;;;0.00;0.00;;;16.60;83.10;;;;;;5009450;28;20042;-72
2022/08/19 03:16:58;;;;;;;0.00;0.00;;;16.60;83.40;;;;;;5021861;28;20037;-72
2022/08/19 03:19:24;;;;;;;0.00;0.00;;;16.60;83.40;;;;;;5021848;28;20049;-71
2022/08/19 03:21:50;;;;;;;0.00;0.00;;;16.60;83.10;;;;;;5009530;28;20049;-72
2022/08/19 03:24:17;;;;;;;0.00;0.00;;;16.60;83.00;;;;;;5011326;28;20042;-72
2022/08/19 03:26:46;;;;;;;0.00;0.00;;;16.60;83.10;;;;;;5029127;28;20048;-72
2022/08/19 03:29:12;;;;;;;0.00;0.00;;;16.60;83.00;;;;;;5011356;28;20129;-71
2022/08/19 03:31:40;;;;;;;0.00;0.00;;;16.60;83.00;;;;;;5026519;28;20559;-72
2022/08/19 03:34:06;;;;;;;0.00;0.00;;;16.60;83.20;;;;;;5011125;28;20038;-71
2022/08/19 03:36:33;;;;;;;0.00;0.00;;;16.60;83.10;;;;;;5022852;28;20651;-71
2022/08/19 03:39:00;;;;;;;0.00;0.00;;;16.50;83.10;;;;;;5026159;28;20081;-72
2022/08/19 03:41:47;;;;;;;0.00;0.00;;;16.60;83.20;;;;;;5009432;28;20058;-72
2022/08/19 03:44:14;;;;;;;0.00;0.00;;;16.60;83.20;;;;;;4993682;28;20050;-72
2022/08/19 03:46:39;;;;;;;0.00;0.00;;;16.60;83.30;;;;;;5009458;28;20122;-72
2022/08/19 03:49:08;;;;;;;0.00;0.00;;;16.50;83.30;;;;;;5021611;28;20041;-71
2022/08/19 03:51:36;;;;;;;0.00;0.00;;;16.50;83.30;;;;;;5009820;28;20049;-71
2022/08/19 03:54:06;;;;;;;0.00;0.00;;;16.50;83.30;;;;;;5023839;28;20034;-71
2022/08/19 03:56:34;;;;;;;0.00;0.00;;;16.60;83.30;;;;;;5009213;28;20042;-72
2022/08/19 03:59:00;;;;;;;0.00;0.00;;;16.60;83.30;;;;;;5007962;28;20575;-72
2022/08/19 04:01:28;;;;;;;0.00;0.00;;;16.60;83.40;;;;;;5028157;28;20045;-72
2022/08/19 04:03:57;;;;;;;0.00;0.00;;;16.60;83.70;;;;;;5024542;28;20049;-72
2022/08/19 04:06:26;;;;;;;0.00;0.00;;;16.60;83.70;;;;;;5012458;28;20042;-72
2022/08/19 04:08:53;;;;;;;0.00;0.00;;;16.60;83.80;;;;;;5024201;28;20447;-72
2022/08/19 04:11:25;;;;;;;0.00;0.00;;;16.60;83.90;;;;;;5027347;28;20057;-72
2022/08/19 04:13:52;;;;;;;0.00;0.00;;;16.60;84.00;;;;;;5027743;28;20702;-71
2022/08/19 04:16:19;;;;;;;0.00;0.00;;;16.60;84.00;;;;;;5012297;28;20507;-71
2022/08/19 04:18:46;;;;;;;0.00;0.00;;;16.60;84.10;;;;;;5013483;28;20455;-71
2022/08/19 04:21:22;;;;;;;0.00;0.00;;;16.60;84.00;;;;;;5014788;28;20054;-71
2022/08/19 04:23:48;;;;;;;0.00;0.00;;;16.60;83.90;;;;;;5012462;28;20457;-71
2022/08/19 04:26:16;;;;;;;0.00;0.00;;;16.60;83.90;;;;;;5021445;28;20050;-71
2022/08/19 04:28:42;;;;;;;0.00;0.00;;;16.60;84.00;;;;;;5012892;28;20084;-71
2022/08/19 04:31:17;;;;;;;0.00;0.00;;;16.60;84.00;;;;;;5012212;28;20100;-71
2022/08/19 04:33:43;;;;;;;0.00;0.00;;;16.70;84.10;;;;;;5017169;28;20414;-71
2022/08/19 04:36:20;;;;;;;0.00;0.00;;;16.60;84.00;;;;;;5032176;28;20045;-72
2022/08/19 04:38:47;;;;;;;0.00;0.00;;;16.60;83.80;;;;;;5008726;28;20054;-71
2022/08/19 04:43:57;;;;;;;0.10;0.10;;;16.60;83.80;;;;;;4998585;28;20042;-71
2022/08/19 04:46:22;;;;;;;0.00;0.00;;;16.60;84.20;;;;;;5020710;28;20048;-71
2022/08/19 04:48:48;;;;;;;0.00;0.00;;;16.50;84.30;;;;;;5028782;28;20048;-71
2022/08/19 04:51:15;;;;;;;0.00;0.00;;;16.50;84.10;;;;;;5011346;28;20100;-71
2022/08/19 04:53:41;;;;;;;0.00;0.00;;;16.50;84.00;;;;;;5027843;28;20052;-71
2022/08/19 04:56:12;;;;;;;0.00;0.00;;;16.50;84.00;;;;;;5011711;28;20045;-71
2022/08/19 04:58:41;;;;;;;0.00;0.00;;;16.50;84.10;;;;;;5010315;28;20037;-71
2022/08/19 05:01:08;;;;;;;0.00;0.00;;;16.50;84.20;;;;;;5016766;28;20541;-71
2022/08/19 05:03:34;;;;;;;0.00;0.00;;;16.50;84.10;;;;;;5013487;28;20041;-72
2022/08/19 05:06:08;;;;;;;0.00;0.00;;;16.50;84.00;;;;;;5010099;28;20064;-72
2022/08/19 05:08:41;;;;;;;0.63;0.63;;;16.50;84.00;;;;;;4993350;28;20058;-72
2022/08/19 05:11:22;;;;;;;0.10;0.10;;;16.50;84.10;;;;;;5011157;28;20549;-73
2022/08/19 05:13:48;;;;;;;0.00;0.00;;;16.60;84.40;;;;;;5002754;28;20057;-73
2022/08/19 05:16:17;;;;;;;0.00;0.00;;;16.60;84.40;;;;;;5001694;28;20052;-72
2022/08/19 05:24:14;;;;;;;0.00;0.00;;;16.80;84.70;;;;;;5007662;28;20054;-74
2022/08/19 05:26:45;;;;;;;0.00;0.00;;;16.80;84.80;;;;;;5005542;28;20426;-74
2022/08/19 05:29:10;;;;;;;0.00;0.00;;;16.90;85.00;;;;;;5010124;28;20045;-74
2022/08/19 05:31:38;;;;;;;0.00;0.00;;;16.90;85.20;;;;;;5010931;28;20053;-74
2022/08/19 05:34:04;;;;;;;0.00;0.00;;;17.00;85.10;;;;;;5010779;28;20050;-74
2022/08/19 05:36:35;;;;;;;0.00;0.00;;;17.00;85.00;;;;;;5010884;28;20053;-74
2022/08/19 05:39:02;;;;;;;0.00;0.00;;;17.10;85.20;;;;;;5010316;28;20058;-70
2022/08/19 05:41:29;;;;;;;0.00;0.00;;;17.10;85.40;;;;;;5009801;28;20054;-70
2022/08/19 05:43:55;;;;;;;0.00;0.00;;;17.20;85.70;;;;;;5010192;28;20414;-70
2022/08/19 05:46:22;;;;;;;0.00;0.00;;;17.30;86.10;;;;;;5010068;28;20038;-70
2022/08/19 05:48:48;;;;;;;0.00;0.00;;;17.30;85.90;;;;;;5025573;28;20052;-70
2022/08/19 05:51:15;;;;;;;0.00;0.00;;;17.30;86.00;;;;;;5009531;28;20054;-69
2022/08/19 05:53:42;;;;;;;0.00;0.00;;;17.30;85.80;;;;;;5019787;28;20901;-70
2022/08/19 05:56:10;;;;;;;0.00;0.00;;;17.30;86.00;;;;;;5008952;28;20073;-69
2022/08/19 05:58:37;;;;;;;0.00;0.00;;;17.40;85.90;;;;;;5008904;28;20063;-68
2022/08/19 06:01:05;;;;;;;0.00;0.00;;;17.50;85.90;;;;;;5013841;28;20116;-68
2022/08/19 06:03:37;;;;;;;0.00;0.00;;;17.60;86.10;;;;;;5018160;28;20049;-68
2022/08/19 06:06:10;;;;;;;;;;;17.60;86.10;;;;;;5018669;28;20052;-68
2022/08/19 06:08:37;;;;;;;0.00;0.00;;;17.60;86.50;;;;;;5029535;28;19925;-68
2022/08/19 06:11:32;;;;;;;0.00;0.00;;;17.70;86.20;;;;;;5025615;28;20418;-68
2022/08/19 06:13:59;;;;;;;0.00;0.00;;;17.70;86.10;;;;;;5009796;28;20045;-68
2022/08/19 06:16:25;;;;;;;0.00;0.00;;;17.80;86.10;;;;;;5010949;28;20080;-68
2022/08/19 06:18:56;;;;;;;0.20;0.20;;;17.80;86.10;;;;;;5016936;28;20772;-69
2022/08/19 06:21:24;;;;;;;0.00;0.00;;;18.00;86.20;;;;;;5000942;28;20042;-69
2022/08/19 06:23:51;;;;;;;0.00;0.00;;;18.00;86.30;;;;;;5007987;28;20503;-69
2022/08/19 06:26:18;;;;;;;0.00;0.00;;;18.10;86.30;;;;;;4990320;28;20067;-69
2022/08/19 06:28:48;;;;;;;0.00;0.00;;;18.10;86.40;;;;;;5009075;28;20485;-69
2022/08/19 06:31:20;;;;;;;0.00;0.00;;;18.20;86.40;;;;;;4999599;28;20065;-69
2022/08/19 06:33:46;;;;;;;0.00;0.00;;;18.20;86.10;;;;;;5008155;28;20042;-69
2022/08/19 06:36:29;;;;;;;0.10;0.10;;;18.20;86.30;;;;;;5007786;28;20422;-69
2022/08/19 06:38:57;;;;;;;0.10;0.10;;;18.30;86.60;;;;;;5009111;28;20104;-69
2022/08/19 06:41:26;;;;;;;0.00;0.00;;;18.30;86.60;;;;;;5009519;28;20096;-69
2022/08/19 06:43:53;;;;;;;0.00;0.00;;;18.40;86.30;;;;;;4989917;28;20042;-68
2022/08/19 06:46:19;;;;;;;0.00;0.00;;;18.40;86.10;;;;;;4989883;28;20622;-69
2022/08/19 06:48:46;;;;;;;0.32;0.32;;;18.50;86.30;;;;;;5007340;28;20042;-68
2022/08/19 06:51:18;;;;;;;0.00;0.00;;;18.50;86.00;;;;;;5010049;28;20666;-69
2022/08/19 06:53:53;;;;;;;0.00;0.00;;;18.60;86.10;;;;;;5024995;28;20058;-72
2022/08/19 06:56:21;;;;;;;1.17;0.32;;;18.60;86.40;;;;;;5010416;28;20165;-71
2022/08/19 06:58:50;;;;;;;0.00;0.00;;;18.70;86.80;;;;;;5008162;28;20038;-68
2022/08/19 07:01:16;;;;;;;0.00;0.00;;;18.80;87.20;;;;;;5008968;28;20054;-68
2022/08/19 07:03:42;;;;;;;0.00;0.00;;;18.80;87.30;;;;;;5008830;28;20392;-68
2022/08/19 07:06:11;;;;;;;0.00;0.00;;;18.90;87.10;;;;;;5009097;28;20046;-68
2022/08/19 07:08:40;;;;;;;0.00;0.00;;;19.00;87.10;;;;;;5007973;28;20096;-68
2022/08/19 07:11:07;;;;;;;0.00;0.00;;;19.10;87.10;;;;;;5007518;28;20069;-68
2022/08/19 07:13:36;;;;;;;0.00;0.00;;;19.10;87.00;;;;;;5007659;28;20050;-69
2022/08/19 07:16:10;;;;;;;0.00;0.00;;;19.30;87.10;;;;;;5008453;28;20129;-67
2022/08/19 07:18:36;;;;;;;0.00;0.00;;;19.30;87.40;;;;;;5022830;28;20049;-68
2022/08/19 07:21:13;;;;;;;0.00;0.00;;;19.40;87.20;;;;;;5008342;28;20045;-68
2022/08/19 07:23:39;;;;;;;0.00;0.00;;;19.50;87.30;;;;;;5008667;28;20034;-69
2022/08/19 07:26:14;;;;;;;0.00;0.00;;;19.60;87.30;;;;;;5008554;28;20113;-69
2022/08/19 07:28:43;;;;;;;0.00;0.00;;;19.60;87.50;;;;;;5008928;28;20045;-68
2022/08/19 07:31:12;;;;;;;0.00;0.00;;;19.70;87.10;;;;;;5009295;28;20053;-69
2022/08/19 07:33:39;;;;;;;0.00;0.00;;;19.70;86.60;;;;;;5005414;28;20046;-71
2022/08/19 07:36:06;;;;;;;0.10;0.10;;;19.80;87.00;;;;;;4988456;28;20455;-69
2022/08/19 07:38:33;;;;;;;0.00;0.00;;;19.80;86.90;;;;;;4993051;28;20050;-68
2022/08/19 07:41:00;;;;;;;0.00;0.00;;;20.00;87.00;;;;;;4993352;28;20050;-68
2022/08/19 07:43:27;;;;;;;0.40;0.40;;;20.00;87.40;;;;;;5011855;28;20046;-68
2022/08/19 07:45:56;;;;;;;0.10;0.10;;;20.10;87.40;;;;;;5012812;28;20052;-68
2022/08/19 07:48:26;;;;;;;0.00;0.00;;;20.10;86.70;;;;;;5027398;28;20045;-68
2022/08/19 07:50:54;;;;;;;0.10;0.10;;;20.20;87.00;;;;;;5012982;28;20156;-68
2022/08/19 07:53:20;;;;;;;0.20;0.20;;;20.20;87.60;;;;;;5012497;28;20045;-68
2022/08/19 07:55:46;;;;;;;0.63;0.25;;;20.30;87.10;;;;;;5012468;28;20050;-68
2022/08/19 07:58:14;;;;;;;0.03;0.03;;;20.40;87.20;;;;;;5027450;28;20049;-68
2022/08/19 08:00:41;;;;;;;0.38;0.38;;;20.40;86.80;;;;;;5022074;28;20046;-69
2022/08/19 08:03:08;;;;;;;0.00;0.00;;;20.50;86.00;;;;;;4996467;28;20816;-68
2022/08/19 08:11:03;;;;;;;0.85;0.40;;;20.70;86.90;;;;;;5011145;28;20124;-68
2022/08/19 08:13:29;;;;;;;0.00;0.00;;;20.70;86.50;;;;;;5011673;28;20053;-68
2022/08/19 08:15:56;;;;;;;0.22;0.22;;;20.80;86.50;;;;;;5011075;28;20038;-68
2022/08/19 08:18:22;;;;;;;0.30;0.30;;;20.90;86.70;;;;;;5011405;28;20041;-69
2022/08/19 08:20:47;;;;;;;0.20;0.20;;;20.90;87.20;;;;;;5011904;28;20057;-68
2022/08/19 08:23:22;;;;;;;0.00;0.00;;;21.00;87.00;;;;;;5011403;28;20042;-68
2022/08/19 08:25:48;;;;;;;0.00;0.00;;;21.10;86.60;;;;;;5011651;28;20046;-68
2022/08/19 08:28:15;;;;;;;0.00;0.00;;;21.20;86.10;;;;;;5027219;28;20050;-68
2022/08/19 08:30:42;;;;;;;0.35;0.35;;;21.30;86.20;;;;;;5012327;28;20050;-68
2022/08/19 08:33:08;;;;;;;0.00;0.00;;;21.30;85.60;;;;;;5011627;28;20045;-68
2022/08/19 08:35:33;;;;;;;1.75;1.65;;;21.30;85.20;;;;;;5011900;28;20061;-69
2022/08/19 08:37:59;;;;;;;0.00;0.00;;;21.50;84.70;;;;;;4999390;28;20038;-68
2022/08/19 08:40:39;;;;;;;0.00;0.00;;;21.50;84.20;;;;;;4992138;28;20419;-68
2022/08/19 08:43:32;;;;;;;1.38;0.22;;;21.50;83.90;;;;;;4990878;28;20046;-68
2022/08/19 08:46:26;;;;;;;0.10;0.10;;;21.60;83.40;;;;;;4992385;28;20112;-68
2022/08/19 08:49:24;;;;;;;0.47;0.47;;;21.70;83.20;;;;;;5009279;28;20064;-68
2022/08/19 08:52:15;;;;;;;1.17;0.95;;;21.80;82.50;;;;;;4993171;28;20134;-68
2022/08/19 08:54:44;;;;;;;0.90;0.45;;;21.90;82.20;;;;;;5009830;28;20088;-68
2022/08/19 08:57:54;;;;;;;0.10;0.10;;;21.90;81.70;;;;;;5009082;28;20049;-68
2022/08/19 09:00:42;;;;;;;0.17;0.17;;;21.90;81.20;;;;;;5011051;28;20115;-70
2022/08/19 09:03:20;;;;;;;0.03;0.03;;;22.00;81.40;;;;;;5010298;28;20143;-69
2022/08/19 09:06:00;;;;;;;0.20;0.20;;;22.10;81.40;;;;;;5010723;28;20100;-69
2022/08/19 09:08:50;;;;;;;0.00;0.00;;;22.20;81.20;;;;;;5010928;28;20070;-69
2022/08/19 09:11:51;;;;;;;0.00;0.00;;;22.30;80.70;;;;;;5009716;28;20046;-68
2022/08/19 09:14:31;;;;;;;0.00;0.00;;;22.40;80.40;;;;;;5010257;28;20479;-68
2022/08/19 09:16:59;;;;;;;2.92;1.05;;;22.50;80.20;;;;;;5026290;28;20292;-69
2022/08/19 09:19:25;;;;;;;0.20;0.20;;;22.60;80.10;;;;;;5011132;28;20069;-68
2022/08/19 09:21:50;;;;;;;0.20;0.20;;;22.70;80.00;;;;;;5010691;28;20542;-69
2022/08/19 09:24:16;;;;;;;0.00;0.00;;;22.80;80.00;;;;;;5010116;28;20054;-68
2022/08/19 09:26:43;;;;;;;1.27;0.90;;;22.90;79.40;;;;;;5010392;28;20088;-68
2022/08/19 09:29:09;;;;;;;0.52;0.52;;;22.90;79.10;;;;;;5010668;28;20058;-67
2022/08/19 09:31:35;;;;;;;0.20;0.20;;;23.00;79.50;;;;;;5009712;28;20034;-67
2022/08/19 09:34:04;;;;;;;0.30;0.25;;;23.00;78.90;;;;;;5009956;28;20065;-67
2022/08/19 09:36:35;;;;;;;0.00;0.00;;;23.10;79.00;;;;;;5010274;28;20037;-67
2022/08/19 09:39:05;;;;;;;0.00;0.00;;;23.20;78.30;;;;;;5010525;28;20058;-66
2022/08/19 09:41:31;;;;;;;0.00;0.00;;;23.20;78.20;;;;;;5009293;28;20078;-67
2022/08/19 09:43:58;;;;;;;0.20;0.20;;;23.20;78.00;;;;;;5008716;28;20076;-67
2022/08/19 09:46:27;;;;;;;0.32;0.22;;;23.30;77.00;;;;;;5010517;28;20042;-68
2022/08/19 09:48:54;;;;;;;0.00;0.00;;;23.40;77.20;;;;;;5010423;28;20038;-68
2022/08/19 09:51:23;;;;;;;0.10;0.10;;;23.50;77.70;;;;;;5008901;28;20081;-68
2022/08/19 09:53:50;;;;;;;0.00;0.00;;;23.60;77.40;;;;;;5007806;28;20369;-69
2022/08/19 09:56:16;;;;;;;0.00;0.00;;;23.70;77.40;;;;;;5025238;28;20042;-68
2022/08/19 09:58:42;;;;;;;0.10;0.10;;;23.60;77.20;;;;;;5010189;28;20045;-67
2022/08/19 10:01:08;;;;;;;0.00;0.00;;;23.70;77.50;;;;;;5010429;28;20120;-67
2022/08/19 10:03:35;;;;;;;0.00;0.00;;;23.70;76.20;;;;;;5010510;28;20049;-68
2022/08/19 10:06:04;;;;;;;0.20;0.20;;;23.80;76.80;;;;;;5010481;28;20447;-67
2022/08/19 10:08:34;;;;;;;0.00;0.00;;;23.80;76.30;;;;;;5009548;28;20057;-67
2022/08/19 10:11:01;;;;;;;0.00;0.00;;;23.80;76.20;;;;;;5010170;28;20042;-68
2022/08/19 10:13:28;;;;;;;0.00;0.00;;;23.80;76.10;;;;;;5010192;28;20078;-67
2022/08/19 10:16:01;;;;;;;0.10;0.10;;;23.90;75.90;;;;;;5010330;28;20605;-68
2022/08/19 10:18:27;;;;;;;0.68;0.68;;;23.90;76.00;;;;;;5010247;28;20038;-67
2022/08/19 10:21:02;;;;;;;0.00;0.00;;;24.00;76.40;;;;;;5010096;28;20495;-67
2022/08/19 10:23:30;;;;;;;0.00;0.00;;;24.00;75.80;;;;;;4997728;28;20196;-67
2022/08/19 10:26:00;;;;;;;0.00;0.00;;;24.00;75.90;;;;;;5025030;28;20100;-67
2022/08/19 10:28:25;;;;;;;0.00;0.00;;;24.10;75.30;;;;;;5010185;28;20042;-67
2022/08/19 10:30:51;;;;;;;0.00;0.00;;;24.30;75.00;;;;;;5025275;28;20091;-67
2022/08/19 10:33:17;;;;;;;0.00;0.00;;;24.30;73.10;;;;;;5009194;28;20531;-67
2022/08/19 10:35:42;;;;;;;0.00;0.00;;;24.50;74.70;;;;;;5010259;28;20049;-67
2022/08/19 10:38:08;;;;;;;0.00;0.00;;;24.60;72.90;;;;;;5009234;28;20041;-68
2022/08/19 10:40:34;;;;;;;0.40;0.40;;;24.70;73.30;;;;;;5009880;28;20097;-68
2022/08/19 10:43:00;;;;;;;0.47;0.47;;;24.80;73.30;;;;;;5009707;28;20041;-68
2022/08/19 10:45:25;;;;;;;0.00;0.00;;;24.80;73.10;;;;;;5009838;28;20100;-68
2022/08/19 10:47:53;;;;;;;0.00;0.00;;;24.90;73.10;;;;;;5009108;28;20046;-68
2022/08/19 10:53:08;;;;;;;0.00;0.00;;;24.70;72.10;;;;;;5009440;28;20054;-68
2022/08/19 10:58:26;;;;;;;0.63;0.63;;;24.70;72.20;;;;;;5008654;28;20042;-68
2022/08/19 11:00:57;;;;;;;0.10;0.10;;;24.60;72.80;;;;;;5009230;28;20131;-68
2022/08/19 11:03:24;;;;;;;0.00;0.00;;;24.50;72.60;;;;;;5006640;28;20046;-68
2022/08/19 11:06:05;;;;;;;0.03;0.03;;;24.50;73.60;;;;;;5008713;28;20106;-68
2022/08/19 11:08:31;;;;;;;;;;;24.30;73.20;;;;;;4998522;28;20034;-68
2022/08/19 11:11:00;;;;;;;0.10;0.10;;;24.30;74.10;;;;;;5003480;28;19981;-68
2022/08/19 11:13:30;;;;;;;0.57;0.38;;;24.40;74.80;;;;;;5008582;28;20045;-68
2022/08/19 11:16:01;;;;;;;0.00;0.00;;;24.50;73.90;;;;;;5000194;28;20119;-68
2022/08/19 11:18:26;;;;;;;0.08;0.08;;;24.50;73.40;;;;;;5023571;28;20068;-69
2022/08/19 11:20:52;;;;;;;3.70;1.52;;;24.50;74.00;;;;;;5007910;28;20483;-69
2022/08/19 11:23:18;;;;;;;0.00;0.00;;;24.50;73.70;;;;;;5008880;28;20034;-69
2022/08/19 11:25:45;;;;;;;0.22;0.22;;;24.50;73.50;;;;;;5008589;28;20046;-69
2022/08/19 11:28:11;;;;;;;0.10;0.10;;;24.50;74.20;;;;;;5008712;28;20064;-69
2022/08/19 11:30:38;;;;;;;0.47;0.47;;;24.50;74.20;;;;;;5008719;28;20085;-69
2022/08/19 11:33:04;;;;;;;1.15;1.10;;;24.50;74.50;;;;;;5008098;28;20048;-69
2022/08/19 11:35:30;;;;;;;0.38;0.35;;;24.40;74.50;;;;;;5008263;28;20522;-69
2022/08/19 11:37:57;;;;;;;0.43;0.43;;;24.40;75.10;;;;;;5008369;28;20399;-69
2022/08/19 11:40:23;;;;;;;0.00;0.00;;;24.20;75.60;;;;;;5008607;28;20070;-68
2022/08/19 11:42:55;;;;;;;0.10;0.10;;;24.00;76.00;;;;;;5007015;28;20430;-68
2022/08/19 11:45:22;;;;;;;0.00;0.00;;;24.00;76.30;;;;;;4997918;28;20060;-69
2022/08/19 11:47:48;;;;;;;0.65;0.65;;;23.90;76.70;;;;;;4995352;28;20076;-68
2022/08/19 11:50:14;;;;;;;0.73;0.20;;;23.80;76.80;;;;;;5007206;28;20546;-69
2022/08/19 11:52:40;;;;;;;0.00;0.00;;;23.80;77.50;;;;;;5008034;28;20045;-68
2022/08/19 11:55:07;;;;;;;0.50;0.50;;;23.70;77.80;;;;;;5023845;28;20042;-67
2022/08/19 11:57:33;;;;;;;0.15;0.15;;;23.70;77.60;;;;;;5024568;28;20045;-67
2022/08/19 11:59:58;;;;;;;0.00;0.00;;;23.50;78.10;;;;;;5008625;28;20049;-67
2022/08/19 12:02:24;;;;;;;1.60;1.13;;;23.50;78.40;;;;;;5008633;28;20053;-67
2022/08/19 12:04:49;;;;;;;0.20;0.20;;;23.50;79.70;;;;;;5009075;28;20046;-67
2022/08/19 12:07:15;;;;;;;0.00;0.00;;;23.30;80.20;;;;;;5008265;28;20042;-67
2022/08/19 12:09:41;;;;;;;0.00;0.00;;;23.20;80.40;;;;;;5002346;28;20407;-67
2022/08/19 12:12:07;;;;;;;0.00;0.00;;;23.10;80.30;;;;;;5008320;28;20100;-67
2022/08/19 12:14:34;;;;;;;0.00;0.00;;;23.00;80.20;;;;;;5013313;28;20180;-67
2022/08/19 12:16:59;;;;;;;0.00;0.00;;;22.90;81.10;;;;;;5009050;28;20129;-67
2022/08/19 12:19:25;;;;;;;0.45;0.30;;;22.90;81.50;;;;;;5009292;28;20145;-67
2022/08/19 12:21:52;;;;;;;0.00;0.00;;;22.80;81.70;;;;;;5009906;28;20137;-67
2022/08/19 12:24:23;;;;;;;0.00;0.00;;;22.90;82.00;;;;;;5012159;28;20483;-67
2022/08/19 12:26:48;;;;;;;0.00;0.00;;;22.80;82.10;;;;;;5012716;28;20080;-67
2022/08/19 12:29:14;;;;;;;0.77;0.77;;;22.90;82.00;;;;;;5012938;28;20084;-67
2022/08/19 12:31:40;;;;;;;0.00;0.00;;;22.90;81.90;;;;;;4992903;28;20078;-67
2022/08/19 12:34:06;;;;;;;0.10;0.10;;;22.80;81.70;;;;;;5010516;28;20458;-67
2022/08/19 12:36:31;;;;;;;0.00;0.00;;;22.80;82.10;;;;;;5012165;28;20113;-67
2022/08/19 12:39:01;;;;;;;0.00;0.00;;;22.70;82.50;;;;;;5011187;28;20046;-68
2022/08/19 12:41:27;;;;;;;0.03;0.03;;;22.70;82.40;;;;;;5012180;28;20788;-68
2022/08/19 12:43:53;;;;;;;0.00;0.00;;;22.70;83.10;;;;;;5012119;28;20038;-69
2022/08/19 12:46:19;;;;;;;0.00;0.00;;;22.60;82.20;;;;;;5011820;28;20077;-69
2022/08/19 12:48:46;;;;;;;0.00;0.00;;;22.60;82.20;;;;;;5010805;28;20060;-69
2022/08/19 12:51:19;;;;;;;0.05;0.05;;;22.60;82.40;;;;;;5012190;28;20052;-68
2022/08/19 12:53:45;;;;;;;0.00;0.00;;;22.60;82.60;;;;;;5011595;28;20053;-68
2022/08/19 12:56:14;;;;;;;0.60;0.60;;;22.60;83.00;;;;;;5012012;28;20056;-69
2022/08/19 12:58:41;;;;;;;0.00;0.00;;;22.50;83.40;;;;;;5010387;28;20070;-69
2022/08/19 13:01:15;;;;;;;0.00;0.00;;;22.50;82.80;;;;;;5011365;28;20483;-68
2022/08/19 13:03:42;;;;;;;0.00;0.00;;;22.40;83.10;;;;;;5011884;28;20046;-68
2022/08/19 13:06:09;;;;;;;0.00;0.00;;;22.40;83.40;;;;;;5011647;28;20683;-68
2022/08/19 13:08:35;;;;;;;0.00;0.00;;;22.40;83.10;;;;;;5011707;28;20831;-68
2022/08/19 13:11:13;;;;;;;0.00;0.00;;;22.40;83.10;;;;;;5011165;28;20119;-68
2022/08/19 13:13:42;;;;;;;1.20;0.55;;;22.50;83.70;;;;;;5010405;28;20463;-68
2022/08/19 13:16:10;;;;;;;0.15;0.15;;;22.50;84.10;;;;;;5011495;28;20561;-68
2022/08/19 13:18:37;;;;;;;0.00;0.00;;;22.50;83.90;;;;;;5011209;28;20042;-68